createdAt,value
2023-04-18T00:00:37.939Z,88.22
2023-04-18T00:01:37.931Z,88.02
2023-04-18T00:02:38.010Z,88.53
2023-04-18T00:03:38.197Z,88.43
2023-04-18T00:04:37.924Z,88.32
2023-04-18T00:05:37.949Z,88.47
2023-04-18T00:06:37.831Z,88.43
2023-04-18T00:07:37.822Z,88.57
2023-04-18T00:08:37.814Z,88.57
2023-04-18T00:09:38.792Z,88.68
2023-04-18T00:10:37.802Z,88.78
2023-04-18T00:11:37.760Z,88.98
2023-04-18T00:12:37.742Z,89.40
2023-04-18T00:13:37.731Z,89.61
2023-04-18T00:14:37.747Z,89.71
2023-04-18T00:15:37.728Z,89.61
2023-04-18T00:16:37.756Z,89.81
2023-04-18T00:17:37.728Z,90.02
2023-04-18T00:18:37.756Z,89.92
2023-04-18T00:19:37.654Z,89.61
2023-04-18T00:20:37.692Z,89.29
2023-04-18T00:21:37.629Z,89.19
2023-04-18T00:22:37.615Z,89.29
2023-04-18T00:23:37.615Z,89.15
2023-04-18T00:24:37.613Z,89.05
2023-04-18T00:25:37.619Z,88.74
2023-04-18T00:26:37.569Z,88.84
2023-04-18T00:27:37.562Z,89.05
2023-04-18T00:28:37.543Z,89.05
2023-04-18T00:29:37.544Z,89.05
2023-04-18T00:30:37.579Z,89.36
2023-04-18T00:31:37.500Z,89.15
2023-04-18T00:32:37.544Z,88.74
2023-04-18T00:33:37.475Z,88.64
2023-04-18T00:34:37.465Z,88.32
2023-04-18T00:35:37.490Z,88.43
2023-04-18T00:36:37.434Z,88.29
2023-04-18T00:37:37.460Z,88.22
2023-04-18T00:38:37.407Z,88.22
2023-04-18T00:39:37.391Z,88.08
2023-04-18T00:40:37.427Z,88.32
2023-04-18T00:41:37.375Z,88.29
2023-04-18T00:42:37.364Z,87.98
2023-04-18T00:43:37.338Z,87.92
2023-04-18T00:44:37.331Z,87.77
2023-04-18T00:45:37.348Z,87.56
2023-04-18T00:46:37.356Z,87.77
2023-04-18T00:47:37.337Z,87.56
2023-04-18T00:48:37.280Z,87.40
2023-04-18T00:49:37.273Z,87.56
2023-04-18T00:50:37.302Z,87.92
2023-04-18T00:51:37.238Z,87.71
2023-04-18T00:52:37.237Z,87.81
2023-04-18T00:53:37.207Z,87.71
2023-04-18T00:54:37.206Z,87.71
2023-04-18T00:55:37.206Z,87.81
2023-04-18T00:56:37.190Z,88.32
2023-04-18T00:57:37.172Z,88.12
2023-04-18T00:58:37.157Z,88.22
2023-04-18T00:59:37.126Z,88.12
2023-04-18T01:00:37.165Z,87.71
2023-04-18T01:01:37.120Z,88.12
2023-04-18T01:02:37.180Z,88.43
2023-04-18T01:03:37.254Z,88.64
2023-04-18T01:04:37.144Z,88.32
2023-04-18T01:05:37.081Z,88.32
2023-04-18T01:06:37.342Z,88.32
2023-04-18T01:07:37.026Z,88.32
2023-04-18T01:08:37.027Z,88.32
2023-04-18T01:09:37.001Z,88.53
2023-04-18T01:10:37.019Z,88.68
2023-04-18T01:11:36.978Z,88.53
2023-04-18T01:12:36.972Z,88.68
2023-04-18T01:13:36.943Z,88.57
2023-04-18T01:14:36.971Z,88.89
2023-04-18T01:15:37.099Z,89.19
2023-04-18T01:16:37.016Z,89.40
2023-04-18T01:17:36.936Z,89.50
2023-04-18T01:18:36.902Z,89.29
2023-04-18T01:19:36.879Z,89.40
2023-04-18T01:20:36.895Z,89.40
2023-04-18T01:21:36.847Z,89.40
2023-04-18T01:22:36.849Z,89.71
2023-04-18T01:23:36.817Z,89.81
2023-04-18T01:24:36.812Z,90.02
2023-04-18T01:25:36.814Z,89.71
2023-04-18T01:26:36.799Z,89.92
2023-04-18T01:27:36.759Z,90.02
2023-04-18T01:28:36.797Z,89.92
2023-04-18T01:29:38.879Z,90.12
2023-04-18T01:30:36.764Z,89.92
2023-04-18T01:31:36.742Z,90.22
2023-04-18T01:32:36.741Z,90.22
2023-04-18T01:33:36.680Z,90.33
2023-04-18T01:34:36.672Z,90.68
2023-04-18T01:35:36.688Z,90.89
2023-04-18T01:36:36.647Z,90.74
2023-04-18T01:37:36.637Z,90.89
2023-04-18T01:38:36.621Z,90.53
2023-04-18T01:39:36.606Z,90.74
2023-04-18T01:40:36.633Z,90.89
2023-04-18T01:41:36.588Z,90.89
2023-04-18T01:42:36.564Z,90.99
2023-04-18T01:43:36.552Z,90.89
2023-04-18T01:44:36.553Z,90.89
2023-04-18T01:45:36.553Z,91.20
2023-04-18T01:46:36.620Z,91.40
2023-04-18T01:47:36.632Z,91.30
2023-04-18T01:48:36.499Z,91.40
2023-04-18T01:49:36.476Z,91.50
2023-04-18T01:50:36.574Z,91.61
2023-04-18T01:51:36.448Z,91.50
2023-04-18T01:52:36.433Z,91.30
2023-04-18T01:53:36.421Z,91.40
2023-04-18T01:54:36.423Z,91.50
2023-04-18T01:55:36.435Z,91.40
2023-04-18T01:56:36.405Z,91.71
2023-04-18T01:57:36.366Z,91.50
2023-04-18T01:58:36.365Z,91.82
2023-04-18T01:59:36.350Z,91.82
2023-04-18T02:00:36.381Z,92.02
2023-04-18T02:01:36.331Z,92.02
2023-04-18T02:02:36.441Z,92.02
2023-04-18T02:03:36.454Z,92.13
2023-04-18T02:04:36.276Z,92.13
2023-04-18T02:05:36.312Z,92.13
2023-04-18T02:06:36.250Z,92.23
2023-04-18T02:07:36.253Z,92.23
2023-04-18T02:08:36.262Z,92.13
2023-04-18T02:09:36.220Z,92.23
2023-04-18T02:10:36.250Z,92.13
2023-04-18T02:11:36.200Z,92.23
2023-04-18T02:12:36.167Z,92.23
2023-04-18T02:13:36.168Z,92.29
2023-04-18T02:14:36.163Z,92.23
2023-04-18T02:15:36.162Z,92.44
2023-04-18T02:16:36.159Z,92.44
2023-04-18T02:17:36.143Z,92.33
2023-04-18T02:18:36.096Z,92.33
2023-04-18T02:19:36.102Z,92.54
2023-04-18T02:20:36.130Z,92.33
2023-04-18T02:21:36.062Z,92.33
2023-04-18T02:22:36.034Z,92.60
2023-04-18T02:23:36.030Z,92.44
2023-04-18T02:24:36.018Z,92.44
2023-04-18T02:25:36.048Z,92.50
2023-04-18T02:26:36.001Z,92.40
2023-04-18T02:27:35.988Z,92.40
2023-04-18T02:28:35.969Z,92.60
2023-04-18T02:29:35.990Z,92.60
2023-04-18T02:30:35.966Z,92.40
2023-04-18T02:31:36.001Z,92.60
2023-04-18T02:32:35.930Z,92.80
2023-04-18T02:33:35.909Z,92.60
2023-04-18T02:34:35.884Z,92.50
2023-04-18T02:35:35.916Z,92.29
2023-04-18T02:36:35.863Z,92.19
2023-04-18T02:37:35.859Z,92.19
2023-04-18T02:38:35.828Z,92.19
2023-04-18T02:39:35.834Z,92.35
2023-04-18T02:40:35.828Z,92.40
2023-04-18T02:41:35.798Z,92.29
2023-04-18T02:42:35.790Z,92.08
2023-04-18T02:43:35.773Z,92.29
2023-04-18T02:44:35.798Z,92.25
2023-04-18T02:45:35.818Z,92.25
2023-04-18T02:46:35.746Z,92.25
2023-04-18T02:47:46.953Z,92.14
2023-04-18T02:48:36.703Z,92.14
2023-04-18T02:49:35.704Z,92.04
2023-04-18T02:50:35.717Z,92.25
2023-04-18T02:51:36.620Z,92.04
2023-04-18T02:52:35.658Z,92.14
2023-04-18T02:53:36.598Z,92.14
2023-04-18T02:54:35.621Z,92.14
2023-04-18T02:55:35.633Z,92.04
2023-04-18T02:56:35.603Z,92.04
2023-04-18T02:57:35.574Z,91.94
2023-04-18T02:58:35.580Z,92.14
2023-04-18T02:59:35.561Z,92.25
2023-04-18T03:00:35.580Z,92.25
2023-04-18T03:01:35.547Z,92.35
2023-04-18T03:02:35.649Z,92.55
2023-04-18T03:03:35.656Z,92.86
2023-04-18T03:04:35.562Z,92.86
2023-04-18T03:05:35.509Z,92.86
2023-04-18T03:06:35.479Z,92.97
2023-04-18T03:07:35.442Z,93.07
2023-04-18T03:08:35.581Z,93.07
2023-04-18T03:09:35.426Z,93.07
2023-04-18T03:10:35.458Z,92.97
2023-04-18T03:11:35.396Z,93.07
2023-04-18T03:12:35.417Z,93.18
2023-04-18T03:13:35.413Z,93.28
2023-04-18T03:14:35.373Z,93.38
2023-04-18T03:15:35.426Z,93.38
2023-04-18T03:16:35.340Z,93.49
2023-04-18T03:17:35.343Z,93.59
2023-04-18T03:18:35.328Z,93.79
2023-04-18T03:19:35.287Z,93.90
2023-04-18T03:20:35.323Z,93.90
2023-04-18T03:21:35.295Z,93.90
2023-04-18T03:22:35.270Z,94.00
2023-04-18T03:23:35.231Z,93.90
2023-04-18T03:24:35.261Z,94.00
2023-04-18T03:25:35.252Z,94.31
2023-04-18T03:26:35.215Z,94.21
2023-04-18T03:27:35.185Z,94.62
2023-04-18T03:28:35.381Z,94.62
2023-04-18T03:29:35.166Z,94.62
2023-04-18T03:30:35.183Z,94.52
2023-04-18T03:31:35.194Z,94.62
2023-04-18T03:32:35.234Z,94.82
2023-04-18T03:33:35.106Z,94.72
2023-04-18T03:34:35.100Z,94.72
2023-04-18T03:35:35.108Z,94.82
2023-04-18T03:36:35.078Z,95.03
2023-04-18T03:37:35.045Z,95.24
2023-04-18T03:38:35.046Z,95.14
2023-04-18T03:39:35.348Z,94.93
2023-04-18T03:40:35.472Z,95.14
2023-04-18T03:41:35.001Z,95.24
2023-04-18T03:42:35.005Z,95.34
2023-04-18T03:43:35.017Z,95.34
2023-04-18T03:44:35.120Z,95.34
2023-04-18T03:45:35.688Z,95.34
2023-04-18T03:46:35.097Z,95.55
2023-04-18T03:47:34.960Z,95.55
2023-04-18T03:48:34.922Z,95.65
2023-04-18T03:49:35.088Z,95.65
2023-04-18T03:50:34.915Z,95.76
2023-04-18T03:51:34.861Z,95.65
2023-04-18T03:52:34.904Z,95.55
2023-04-18T03:53:35.005Z,95.45
2023-04-18T03:54:34.800Z,95.55
2023-04-18T03:55:34.804Z,95.55
2023-04-18T03:56:34.913Z,95.65
2023-04-18T03:57:34.738Z,95.65
2023-04-18T03:58:34.784Z,95.76
2023-04-18T03:59:34.784Z,95.76
2023-04-18T04:00:34.745Z,95.86
2023-04-18T04:01:34.715Z,95.86
2023-04-18T04:02:34.830Z,95.96
2023-04-18T04:03:34.726Z,95.86
2023-04-18T04:04:34.689Z,95.96
2023-04-18T04:05:34.711Z,95.96
2023-04-18T04:06:34.648Z,96.06
2023-04-18T04:07:34.610Z,96.06
2023-04-18T04:08:34.598Z,95.96
2023-04-18T04:09:34.583Z,96.27
2023-04-18T04:10:34.588Z,96.11
2023-04-18T04:11:34.587Z,96.17
2023-04-18T04:12:34.552Z,96.31
2023-04-18T04:13:34.536Z,96.17
2023-04-18T04:14:34.533Z,96.31
2023-04-18T04:15:34.523Z,96.42
2023-04-18T04:16:34.550Z,96.52
2023-04-18T04:17:34.515Z,96.62
2023-04-18T04:18:34.505Z,96.62
2023-04-18T04:19:34.479Z,96.73
2023-04-18T04:20:34.446Z,96.73
2023-04-18T04:21:34.590Z,96.94
2023-04-18T04:22:34.416Z,97.04
2023-04-18T04:23:34.457Z,97.04
2023-04-18T04:24:34.393Z,97.25
2023-04-18T04:25:34.388Z,97.34
2023-04-18T04:26:34.408Z,97.34
2023-04-18T04:27:34.364Z,97.34
2023-04-18T04:28:34.346Z,97.34
2023-04-18T04:29:34.329Z,97.45
2023-04-18T04:30:34.358Z,97.55
2023-04-18T04:31:35.138Z,97.45
2023-04-18T04:32:34.316Z,97.45
2023-04-18T04:33:34.277Z,97.34
2023-04-18T04:34:34.319Z,97.25
2023-04-18T04:35:34.265Z,97.25
2023-04-18T04:36:34.269Z,97.34
2023-04-18T04:37:34.222Z,97.34
2023-04-18T04:38:34.211Z,97.55
2023-04-18T04:39:34.187Z,97.66
2023-04-18T04:40:34.179Z,97.76
2023-04-18T04:41:34.198Z,97.55
2023-04-18T04:42:34.157Z,97.55
2023-04-18T04:43:34.147Z,97.45
2023-04-18T04:44:34.175Z,97.55
2023-04-18T04:45:34.187Z,97.55
2023-04-18T04:46:34.141Z,97.55
2023-04-18T04:47:34.167Z,97.76
2023-04-18T04:48:34.078Z,97.76
2023-04-18T04:49:34.063Z,97.66
2023-04-18T04:50:34.056Z,97.55
2023-04-18T04:51:34.049Z,97.66
2023-04-18T04:52:34.053Z,97.45
2023-04-18T04:53:34.005Z,97.55
2023-04-18T04:54:34.000Z,97.55
2023-04-18T04:55:33.989Z,97.66
2023-04-18T04:56:34.009Z,97.55
2023-04-18T04:57:33.958Z,97.55
2023-04-18T04:58:34.903Z,97.45
2023-04-18T04:59:34.063Z,97.45
2023-04-18T05:00:33.936Z,97.45
2023-04-18T05:01:34.002Z,97.34
2023-04-18T05:02:34.093Z,97.45
2023-04-18T05:03:34.932Z,97.45
2023-04-18T05:04:34.196Z,97.66
2023-04-18T05:05:33.917Z,97.66
2023-04-18T05:06:33.938Z,97.76
2023-04-18T05:07:34.548Z,97.66
2023-04-18T05:08:33.899Z,97.76
2023-04-18T05:09:33.809Z,97.76
2023-04-18T05:10:33.797Z,97.76
2023-04-18T05:11:33.820Z,97.76
2023-04-18T05:12:33.763Z,97.86
2023-04-18T05:13:33.774Z,97.86
2023-04-18T05:14:33.742Z,97.86
2023-04-18T05:15:33.749Z,97.76
2023-04-18T05:16:33.811Z,97.86
2023-04-18T05:17:33.730Z,97.97
2023-04-18T05:18:35.031Z,98.18
2023-04-18T05:19:33.667Z,98.18
2023-04-18T05:20:33.693Z,98.28
2023-04-18T05:21:33.631Z,98.38
2023-04-18T05:22:33.642Z,98.49
2023-04-18T05:23:33.609Z,98.58
2023-04-18T05:24:33.598Z,98.58
2023-04-18T05:25:33.632Z,98.69
2023-04-18T05:26:33.591Z,98.69
2023-04-18T05:27:33.558Z,98.79
2023-04-18T05:28:33.552Z,98.79
2023-04-18T05:29:33.529Z,98.69
2023-04-18T05:30:33.570Z,98.58
2023-04-18T05:31:33.561Z,98.69
2023-04-18T05:32:33.540Z,98.69
2023-04-18T05:33:33.485Z,98.65
2023-04-18T05:34:33.479Z,98.49
2023-04-18T05:35:33.503Z,98.44
2023-04-18T05:36:33.452Z,98.58
2023-04-18T05:37:33.448Z,98.69
2023-04-18T05:38:33.418Z,98.69
2023-04-18T05:39:33.414Z,98.69
2023-04-18T05:40:33.426Z,98.79
2023-04-18T05:41:33.382Z,98.90
2023-04-18T05:42:33.379Z,98.90
2023-04-18T05:43:33.352Z,99.10
2023-04-18T05:44:33.342Z,99.10
2023-04-18T05:45:33.376Z,99.00
2023-04-18T05:46:33.323Z,99.00
2023-04-18T05:47:33.373Z,99.00
2023-04-18T05:48:33.302Z,99.10
2023-04-18T05:49:33.279Z,99.41
2023-04-18T05:50:33.300Z,99.41
2023-04-18T05:51:33.235Z,99.21
2023-04-18T05:52:33.256Z,99.21
2023-04-18T05:53:33.226Z,99.31
2023-04-18T05:54:33.226Z,99.41
2023-04-18T05:55:33.221Z,99.31
2023-04-18T05:56:33.197Z,99.31
2023-04-18T05:57:33.174Z,99.26
2023-04-18T05:58:33.157Z,99.26
2023-04-18T05:59:33.147Z,99.26
2023-04-18T06:00:33.166Z,99.26
2023-04-18T06:01:33.111Z,99.37
2023-04-18T06:02:33.213Z,99.26
2023-04-18T06:03:33.336Z,99.16
2023-04-18T06:04:33.336Z,99.26
2023-04-18T06:05:33.310Z,99.47
2023-04-18T06:06:33.048Z,99.47
2023-04-18T06:07:33.037Z,99.47
2023-04-18T06:08:33.028Z,99.37
2023-04-18T06:09:33.008Z,99.37
2023-04-18T06:10:33.044Z,99.57
2023-04-18T06:11:32.993Z,99.57
2023-04-18T06:12:32.987Z,99.68
2023-04-18T06:13:32.954Z,99.68
2023-04-18T06:14:32.950Z,99.57
2023-04-18T06:15:32.971Z,99.57
2023-04-18T06:16:32.981Z,99.47
2023-04-18T06:17:32.931Z,99.57
2023-04-18T06:18:32.908Z,99.57
2023-04-18T06:19:32.882Z,99.57
2023-04-18T06:20:32.896Z,99.26
2023-04-18T06:21:32.847Z,99.16
2023-04-18T06:22:32.839Z,99.01
2023-04-18T06:23:32.820Z,99.01
2023-04-18T06:24:33.050Z,98.91
2023-04-18T06:25:32.839Z,98.70
2023-04-18T06:26:32.801Z,98.45
2023-04-18T06:27:32.792Z,98.66
2023-04-18T06:28:32.761Z,98.45
2023-04-18T06:29:32.746Z,97.73
2023-04-18T06:30:32.771Z,97.73
2023-04-18T06:31:32.731Z,97.83
2023-04-18T06:32:32.769Z,97.73
2023-04-18T06:33:32.700Z,98.03
2023-04-18T06:34:32.693Z,97.52
2023-04-18T06:35:32.704Z,97.63
2023-04-18T06:36:32.650Z,97.94
2023-04-18T06:37:33.433Z,98.03
2023-04-18T06:38:33.169Z,98.03
2023-04-18T06:39:32.615Z,97.73
2023-04-18T06:40:32.636Z,97.42
2023-04-18T06:41:32.600Z,97.42
2023-04-18T06:42:32.593Z,97.42
2023-04-18T06:43:32.741Z,97.11
2023-04-18T06:44:32.572Z,97.01
2023-04-18T06:45:32.683Z,97.42
2023-04-18T06:46:32.540Z,97.73
2023-04-18T06:47:32.801Z,97.21
2023-04-18T06:48:32.502Z,97.52
2023-04-18T06:49:32.492Z,97.42
2023-04-18T06:50:32.471Z,97.42
2023-04-18T06:51:32.485Z,97.31
2023-04-18T06:52:32.448Z,97.21
2023-04-18T06:53:32.427Z,97.31
2023-04-18T06:54:32.419Z,97.52
2023-04-18T06:55:32.437Z,97.52
2023-04-18T06:56:34.383Z,97.63
2023-04-18T06:57:32.398Z,97.83
2023-04-18T06:58:32.377Z,97.73
2023-04-18T06:59:32.393Z,97.73
2023-04-18T07:00:32.356Z,97.42
2023-04-18T07:01:32.442Z,97.52
2023-04-18T07:02:32.414Z,97.52
2023-04-18T07:03:32.362Z,97.31
2023-04-18T07:04:32.309Z,97.31
2023-04-18T07:05:32.304Z,97.42
2023-04-18T07:06:32.288Z,97.52
2023-04-18T07:07:32.274Z,97.42
2023-04-18T07:08:32.247Z,97.42
2023-04-18T07:09:32.429Z,97.58
2023-04-18T07:10:33.082Z,97.38
2023-04-18T07:11:32.391Z,97.27
2023-04-18T07:12:32.181Z,96.09
2023-04-18T07:13:32.182Z,95.78
2023-04-18T07:14:34.096Z,95.89
2023-04-18T07:15:32.156Z,95.89
2023-04-18T07:16:32.216Z,96.09
2023-04-18T07:17:32.164Z,95.78
2023-04-18T07:18:38.008Z,95.78
2023-04-18T07:19:33.088Z,95.78
2023-04-18T07:20:32.075Z,95.89
2023-04-18T07:21:32.097Z,95.58
2023-04-18T07:22:32.061Z,95.83
2023-04-18T07:23:32.143Z,95.93
2023-04-18T07:24:32.020Z,96.34
2023-04-18T07:25:32.041Z,96.45
2023-04-18T07:26:32.042Z,96.55
2023-04-18T07:27:32.005Z,96.55
2023-04-18T07:28:31.969Z,96.55
2023-04-18T07:29:31.957Z,96.66
2023-04-18T07:30:31.943Z,96.61
2023-04-18T07:31:32.034Z,96.24
2023-04-18T07:32:32.007Z,96.34
2023-04-18T07:33:31.950Z,96.66
2023-04-18T07:34:31.887Z,96.50
2023-04-18T07:35:31.887Z,96.50
2023-04-18T07:36:31.909Z,96.92
2023-04-18T07:37:31.857Z,96.61
2023-04-18T07:38:31.848Z,96.46
2023-04-18T07:39:31.886Z,96.25
2023-04-18T07:40:31.819Z,95.95
2023-04-18T07:41:31.844Z,95.84
2023-04-18T07:42:31.799Z,95.39
2023-04-18T07:43:31.797Z,95.49
2023-04-18T07:44:31.768Z,95.39
2023-04-18T07:45:31.760Z,93.95
2023-04-18T07:46:31.813Z,93.95
2023-04-18T07:47:32.907Z,94.36
2023-04-18T07:48:31.716Z,94.15
2023-04-18T07:49:31.697Z,94.46
2023-04-18T07:50:31.761Z,94.26
2023-04-18T07:51:31.716Z,94.26
2023-04-18T07:52:31.661Z,94.46
2023-04-18T07:53:31.650Z,94.31
2023-04-18T07:54:31.638Z,94.21
2023-04-18T07:55:31.663Z,94.17
2023-04-18T07:56:31.640Z,94.07
2023-04-18T07:57:31.602Z,93.30
2023-04-18T07:58:31.581Z,91.86
2023-04-18T07:59:31.574Z,91.55
2023-04-18T08:00:31.569Z,92.07
2023-04-18T08:01:31.611Z,92.48
2023-04-18T08:02:31.639Z,92.38
2023-04-18T08:03:31.582Z,92.38
2023-04-18T08:04:31.626Z,92.07
2023-04-18T08:05:31.513Z,92.63
2023-04-18T08:06:31.506Z,92.99
2023-04-18T08:07:31.478Z,92.48
2023-04-18T08:08:31.457Z,91.86
2023-04-18T08:09:31.470Z,91.66
2023-04-18T08:10:31.430Z,91.80
2023-04-18T08:11:31.442Z,92.21
2023-04-18T08:12:31.398Z,92.42
2023-04-18T08:13:31.404Z,92.32
2023-04-18T08:14:31.370Z,92.52
2023-04-18T08:15:31.359Z,93.04
2023-04-18T08:16:31.448Z,92.97
2023-04-18T08:17:31.350Z,93.14
2023-04-18T08:18:31.328Z,92.97
2023-04-18T08:19:31.312Z,92.87
2023-04-18T08:20:31.287Z,93.14
2023-04-18T08:21:31.311Z,93.35
2023-04-18T08:22:31.266Z,93.35
2023-04-18T08:23:31.285Z,93.14
2023-04-18T08:24:31.308Z,93.04
2023-04-18T08:25:31.240Z,92.93
2023-04-18T08:26:31.236Z,93.04
2023-04-18T08:27:31.200Z,93.35
2023-04-18T08:28:31.189Z,93.04
2023-04-18T08:29:31.178Z,93.24
2023-04-18T08:30:31.305Z,92.97
2023-04-18T08:31:31.211Z,93.29
2023-04-18T08:32:31.154Z,93.44
2023-04-18T08:33:31.131Z,93.29
2023-04-18T08:34:31.112Z,93.70
2023-04-18T08:35:31.146Z,93.76
2023-04-18T08:36:31.119Z,93.24
2023-04-18T08:37:31.095Z,92.73
2023-04-18T08:38:31.055Z,92.73
2023-04-18T08:39:31.054Z,92.93
2023-04-18T08:40:31.055Z,92.42
2023-04-18T08:41:31.130Z,92.01
2023-04-18T08:42:31.002Z,92.21
2023-04-18T08:43:30.998Z,92.63
2023-04-18T08:44:31.141Z,92.93
2023-04-18T08:45:30.985Z,92.32
2023-04-18T08:46:30.965Z,92.89
2023-04-18T08:47:30.953Z,92.27
2023-04-18T08:48:30.925Z,91.10
2023-04-18T08:49:30.928Z,90.38
2023-04-18T08:50:30.938Z,90.38
2023-04-18T08:51:30.912Z,90.18
2023-04-18T08:52:30.883Z,90.75
2023-04-18T08:53:30.854Z,89.83
2023-04-18T08:54:30.845Z,89.21
2023-04-18T08:55:30.833Z,89.01
2023-04-18T08:56:30.844Z,89.83
2023-04-18T08:57:30.816Z,90.40
2023-04-18T08:58:30.789Z,90.50
2023-04-18T08:59:30.786Z,89.78
2023-04-18T09:00:30.753Z,88.96
2023-04-18T09:01:30.797Z,88.56
2023-04-18T09:02:30.768Z,88.59
2023-04-18T09:03:30.745Z,89.11
2023-04-18T09:04:30.763Z,89.72
2023-04-18T09:05:30.715Z,89.42
2023-04-18T09:06:30.705Z,89.83
2023-04-18T09:07:30.673Z,90.24
2023-04-18T09:08:30.654Z,89.52
2023-04-18T09:09:30.656Z,88.96
2023-04-18T09:10:30.639Z,88.45
2023-04-18T09:11:30.644Z,88.45
2023-04-18T09:12:30.601Z,89.07
2023-04-18T09:13:30.596Z,88.45
2023-04-18T09:14:30.570Z,89.01
2023-04-18T09:15:30.570Z,88.86
2023-04-18T09:16:30.625Z,89.27
2023-04-18T09:17:30.548Z,87.94
2023-04-18T09:18:30.521Z,88.04
2023-04-18T09:19:30.536Z,89.27
2023-04-18T09:20:30.495Z,89.78
2023-04-18T09:21:30.523Z,88.31
2023-04-18T09:22:30.473Z,87.70
2023-04-18T09:23:30.475Z,88.00
2023-04-18T09:24:30.461Z,88.00
2023-04-18T09:25:30.460Z,87.45
2023-04-18T09:26:30.446Z,88.94
2023-04-18T09:27:30.405Z,88.59
2023-04-18T09:28:30.425Z,86.24
2023-04-18T09:29:30.394Z,84.46
2023-04-18T09:30:30.372Z,84.25
2023-04-18T09:31:30.524Z,83.74
2023-04-18T09:32:30.394Z,83.64
2023-04-18T09:33:30.347Z,83.39
2023-04-18T09:34:30.310Z,83.09
2023-04-18T09:35:30.352Z,82.89
2023-04-18T09:36:30.319Z,83.11
2023-04-18T09:37:30.303Z,82.01
2023-04-18T09:38:30.270Z,81.46
2023-04-18T09:39:30.254Z,79.90
2023-04-18T09:40:30.235Z,79.25
2023-04-18T09:41:30.229Z,79.04
2023-04-18T09:42:30.234Z,78.33
2023-04-18T09:43:30.997Z,77.51
2023-04-18T09:44:30.194Z,78.57
2023-04-18T09:45:30.182Z,78.06
2023-04-18T09:46:30.179Z,77.34
2023-04-18T09:47:30.229Z,78.61
2023-04-18T09:48:30.125Z,78.34
2023-04-18T09:49:30.126Z,77.93
2023-04-18T09:50:30.107Z,78.75
2023-04-18T09:51:30.096Z,78.54
2023-04-18T09:52:30.094Z,78.50
2023-04-18T09:53:30.065Z,77.08
2023-04-18T09:54:30.056Z,78.16
2023-04-18T09:55:30.054Z,77.96
2023-04-18T09:56:30.017Z,78.47
2023-04-18T09:57:30.080Z,78.50
2023-04-18T09:58:29.993Z,77.24
2023-04-18T09:59:29.991Z,74.79
2023-04-18T10:00:29.975Z,74.83
2023-04-18T10:01:29.994Z,74.62
2023-04-18T10:02:30.083Z,75.85
2023-04-18T10:03:30.016Z,76.97
2023-04-18T10:04:30.029Z,74.93
2023-04-18T10:05:29.912Z,77.03
2023-04-18T10:06:29.904Z,74.99
2023-04-18T10:07:29.918Z,73.16
2023-04-18T10:08:29.860Z,73.97
2023-04-18T10:09:29.855Z,73.97
2023-04-18T10:10:29.838Z,74.93
2023-04-18T10:11:29.840Z,76.35
2023-04-18T10:12:29.847Z,77.07
2023-04-18T10:13:29.809Z,74.58
2023-04-18T10:14:29.780Z,75.03
2023-04-18T10:15:29.771Z,75.30
2023-04-18T10:16:29.785Z,74.08
2023-04-18T10:17:29.946Z,73.40
2023-04-18T10:18:29.786Z,75.23
2023-04-18T10:19:29.747Z,75.20
2023-04-18T10:20:29.706Z,76.59
2023-04-18T10:21:29.692Z,74.11
2023-04-18T10:22:29.744Z,75.33
2023-04-18T10:23:29.671Z,72.14
2023-04-18T10:24:29.650Z,70.72
2023-04-18T10:25:29.632Z,70.62
2023-04-18T10:26:29.624Z,71.43
2023-04-18T10:27:29.664Z,72.55
2023-04-18T10:28:29.596Z,71.33
2023-04-18T10:29:29.599Z,71.53
2023-04-18T10:30:29.563Z,73.50
2023-04-18T10:31:29.677Z,72.58
2023-04-18T10:32:29.604Z,71.60
2023-04-18T10:33:32.296Z,72.45
2023-04-18T10:34:29.598Z,72.75
2023-04-18T10:35:29.536Z,74.73
2023-04-18T10:36:29.485Z,74.01
2023-04-18T10:37:29.507Z,73.97
2023-04-18T10:38:29.479Z,73.26
2023-04-18T10:39:29.454Z,73.40
2023-04-18T10:40:29.432Z,74.01
2023-04-18T10:41:29.432Z,75.51
2023-04-18T10:42:29.432Z,75.37
2023-04-18T10:43:29.403Z,74.52
2023-04-18T10:44:29.380Z,72.14
2023-04-18T10:45:29.376Z,71.53
2023-04-18T10:46:32.213Z,71.64
2023-04-18T10:47:29.425Z,72.34
2023-04-18T10:48:29.351Z,72.55
2023-04-18T10:49:32.079Z,72.86
2023-04-18T10:50:29.291Z,72.75
2023-04-18T10:51:29.326Z,71.56
2023-04-18T10:52:29.300Z,72.28
2023-04-18T10:53:29.270Z,72.99
2023-04-18T10:54:29.268Z,72.69
2023-04-18T10:55:29.297Z,73.30
2023-04-18T10:56:29.221Z,74.01
2023-04-18T10:57:29.247Z,73.10
2023-04-18T10:58:29.209Z,73.60
2023-04-18T10:59:29.188Z,73.10
2023-04-18T11:00:29.173Z,74.41
2023-04-18T11:01:32.150Z,72.78
2023-04-18T11:02:29.296Z,73.26
2023-04-18T11:03:29.154Z,71.23
2023-04-18T11:04:29.301Z,72.96
2023-04-18T11:05:29.113Z,71.94
2023-04-18T11:06:29.127Z,72.21
2023-04-18T11:07:30.054Z,71.77
2023-04-18T11:08:29.172Z,71.36
2023-04-18T11:09:29.087Z,71.77
2023-04-18T11:10:29.041Z,70.45
2023-04-18T11:11:29.039Z,70.86
2023-04-18T11:12:29.040Z,70.65
2023-04-18T11:13:29.007Z,69.53
2023-04-18T11:14:28.985Z,70.14
2023-04-18T11:15:30.839Z,71.47
2023-04-18T11:16:28.971Z,69.64
2023-04-18T11:17:29.019Z,71.87
2023-04-18T11:18:28.927Z,70.75
2023-04-18T11:19:28.922Z,69.84
2023-04-18T11:20:28.898Z,69.94
2023-04-18T11:21:30.626Z,70.55
2023-04-18T11:22:28.912Z,70.72
2023-04-18T11:23:28.875Z,69.20
2023-04-18T11:24:28.855Z,68.49
2023-04-18T11:25:28.843Z,69.43
2023-04-18T11:26:28.824Z,69.43
2023-04-18T11:27:28.830Z,69.98
2023-04-18T11:28:28.806Z,70.52
2023-04-18T11:29:28.766Z,67.61
2023-04-18T11:30:28.769Z,68.52
2023-04-18T11:31:28.801Z,67.92
2023-04-18T11:32:28.848Z,66.63
2023-04-18T11:33:28.734Z,66.26
2023-04-18T11:34:28.729Z,67.74
2023-04-18T11:35:28.766Z,67.77
2023-04-18T11:36:28.780Z,68.79
2023-04-18T11:37:28.809Z,68.01
2023-04-18T11:38:28.750Z,68.79
2023-04-18T11:39:28.839Z,71.20
2023-04-18T11:40:28.639Z,69.43
2023-04-18T11:41:28.626Z,66.97
2023-04-18T11:42:28.643Z,66.77
2023-04-18T11:43:28.610Z,66.16
2023-04-18T11:44:28.577Z,66.49
2023-04-18T11:45:28.572Z,67.57
2023-04-18T11:46:28.594Z,67.91
2023-04-18T11:47:28.620Z,68.96
2023-04-18T11:48:28.528Z,70.18
2023-04-18T11:49:28.526Z,70.68
2023-04-18T11:50:28.506Z,69.33
2023-04-18T11:51:28.484Z,69.09
2023-04-18T11:52:28.525Z,69.06
2023-04-18T11:53:28.461Z,67.00
2023-04-18T11:54:28.646Z,66.56
2023-04-18T11:55:28.438Z,66.90
2023-04-18T11:56:29.063Z,67.71
2023-04-18T11:57:28.446Z,66.36
2023-04-18T11:58:28.423Z,68.23
2023-04-18T11:59:29.325Z,67.08
2023-04-18T12:00:28.382Z,64.04
2023-04-18T12:01:28.385Z,65.15
2023-04-18T12:02:28.505Z,64.82
2023-04-18T12:03:28.508Z,66.03
2023-04-18T12:04:28.466Z,65.09
2023-04-18T12:05:28.434Z,63.71
2023-04-18T12:06:28.419Z,63.99
2023-04-18T12:07:28.278Z,61.53
2023-04-18T12:08:28.260Z,61.16
2023-04-18T12:09:28.529Z,60.55
2023-04-18T12:10:28.252Z,63.78
2023-04-18T12:11:28.249Z,64.31
2023-04-18T12:12:29.087Z,64.41
2023-04-18T12:13:28.192Z,65.32
2023-04-18T12:14:28.185Z,64.07
2023-04-18T12:15:28.188Z,63.95
2023-04-18T12:16:28.409Z,63.10
2023-04-18T12:17:28.310Z,62.37
2023-04-18T12:18:28.133Z,61.96
2023-04-18T12:19:28.157Z,61.49
2023-04-18T12:20:28.117Z,60.81
2023-04-18T12:21:28.119Z,63.09
2023-04-18T12:22:28.082Z,64.34
2023-04-18T12:23:28.069Z,64.58
2023-04-18T12:24:28.862Z,64.81
2023-04-18T12:25:28.034Z,66.05
2023-04-18T12:26:28.065Z,67.27
2023-04-18T12:27:28.004Z,67.10
2023-04-18T12:28:28.090Z,65.65
2023-04-18T12:29:27.984Z,67.07
2023-04-18T12:30:27.967Z,67.20
2023-04-18T12:31:28.027Z,67.30
2023-04-18T12:32:28.051Z,67.00
2023-04-18T12:33:27.943Z,66.60
2023-04-18T12:34:27.931Z,66.60
2023-04-18T12:35:27.914Z,67.33
2023-04-18T12:36:27.923Z,66.96
2023-04-18T12:37:27.884Z,68.11
2023-04-18T12:38:27.867Z,68.44
2023-04-18T12:39:27.853Z,69.80
2023-04-18T12:40:27.866Z,70.10
2023-04-18T12:41:27.835Z,69.67
2023-04-18T12:42:27.804Z,69.36
2023-04-18T12:43:27.787Z,69.16
2023-04-18T12:44:27.779Z,68.85
2023-04-18T12:45:27.767Z,70.48
2023-04-18T12:46:27.921Z,70.86
2023-04-18T12:47:27.758Z,70.75
2023-04-18T12:48:27.730Z,69.30
2023-04-18T12:49:27.718Z,68.22
2023-04-18T12:50:27.713Z,68.59
2023-04-18T12:51:27.742Z,66.33
2023-04-18T12:52:27.678Z,66.70